sensor_id;sensor_type;location;lat;lon;timestamp;P1;durP1;ratioP1;P2;durP2;ratioP2
49241;SDS011;35079;52.704;13.814;2023-04-16T00:01:48;26.52;;;18.77;;
49241;SDS011;35079;52.704;13.814;2023-04-16T00:04:13;26.98;;;20.27;;
49241;SDS011;35079;52.704;13.814;2023-04-16T00:06:39;28.08;;;19.52;;
49241;SDS011;35079;52.704;13.814;2023-04-16T00:09:05;26.73;;;19.45;;
49241;SDS011;35079;52.704;13.814;2023-04-16T00:11:30;29.48;;;20.50;;
49241;SDS011;35079;52.704;13.814;2023-04-16T00:13:56;30.73;;;19.63;;
49241;SDS011;35079;52.704;13.814;2023-04-16T00:16:21;30.88;;;20.23;;
49241;SDS011;35079;52.704;13.814;2023-04-16T00:18:47;27.30;;;20.08;;
49241;SDS011;35079;52.704;13.814;2023-04-16T00:21:13;31.70;;;20.48;;
49241;SDS011;35079;52.704;13.814;2023-04-16T00:23:38;28.00;;;19.50;;
49241;SDS011;35079;52.704;13.814;2023-04-16T00:26:04;33.85;;;20.83;;
49241;SDS011;35079;52.704;13.814;2023-04-16T00:28:29;30.67;;;20.35;;
49241;SDS011;35079;52.704;13.814;2023-04-16T00:30:55;27.55;;;20.13;;
49241;SDS011;35079;52.704;13.814;2023-04-16T00:33:21;32.95;;;20.48;;
49241;SDS011;35079;52.704;13.814;2023-04-16T00:35:47;32.45;;;19.48;;
49241;SDS011;35079;52.704;13.814;2023-04-16T00:38:13;29.40;;;20.48;;
49241;SDS011;35079;52.704;13.814;2023-04-16T00:40:39;27.83;;;19.23;;
49241;SDS011;35079;52.704;13.814;2023-04-16T00:43:04;29.58;;;19.20;;
49241;SDS011;35079;52.704;13.814;2023-04-16T00:45:30;28.35;;;19.67;;
49241;SDS011;35079;52.704;13.814;2023-04-16T00:47:56;30.65;;;20.40;;
49241;SDS011;35079;52.704;13.814;2023-04-16T00:50:22;28.77;;;19.27;;
49241;SDS011;35079;52.704;13.814;2023-04-16T00:52:48;28.50;;;18.45;;
49241;SDS011;35079;52.704;13.814;2023-04-16T00:55:14;24.38;;;18.48;;
49241;SDS011;35079;52.704;13.814;2023-04-16T00:57:42;25.95;;;17.90;;
49241;SDS011;35079;52.704;13.814;2023-04-16T01:00:09;27.83;;;18.83;;
49241;SDS011;35079;52.704;13.814;2023-04-16T01:02:35;29.02;;;18.80;;
49241;SDS011;35079;52.704;13.814;2023-04-16T01:05:01;29.30;;;18.95;;
49241;SDS011;35079;52.704;13.814;2023-04-16T01:07:27;27.35;;;19.05;;
49241;SDS011;35079;52.704;13.814;2023-04-16T01:09:53;26.65;;;18.77;;
49241;SDS011;35079;52.704;13.814;2023-04-16T01:12:19;26.55;;;19.88;;
49241;SDS011;35079;52.704;13.814;2023-04-16T01:14:44;23.65;;;17.65;;
49241;SDS011;35079;52.704;13.814;2023-04-16T01:17:10;26.38;;;18.42;;
49241;SDS011;35079;52.704;13.814;2023-04-16T01:19:36;23.20;;;17.20;;
49241;SDS011;35079;52.704;13.814;2023-04-16T01:22:02;23.67;;;18.45;;
49241;SDS011;35079;52.704;13.814;2023-04-16T01:24:28;24.70;;;18.67;;
49241;SDS011;35079;52.704;13.814;2023-04-16T01:26:56;24.55;;;17.98;;
49241;SDS011;35079;52.704;13.814;2023-04-16T01:29:23;24.85;;;18.85;;
49241;SDS011;35079;52.704;13.814;2023-04-16T01:31:49;25.73;;;18.55;;
49241;SDS011;35079;52.704;13.814;2023-04-16T01:34:14;26.38;;;18.20;;
49241;SDS011;35079;52.704;13.814;2023-04-16T01:36:40;27.88;;;18.90;;
49241;SDS011;35079;52.704;13.814;2023-04-16T01:39:06;23.90;;;18.10;;
49241;SDS011;35079;52.704;13.814;2023-04-16T01:41:33;23.67;;;18.63;;
49241;SDS011;35079;52.704;13.814;2023-04-16T01:43:58;26.77;;;18.77;;
49241;SDS011;35079;52.704;13.814;2023-04-16T01:46:28;24.60;;;18.52;;
49241;SDS011;35079;52.704;13.814;2023-04-16T01:48:59;26.33;;;18.92;;
49241;SDS011;35079;52.704;13.814;2023-04-16T01:51:26;28.63;;;19.63;;
49241;SDS011;35079;52.704;13.814;2023-04-16T01:53:52;24.02;;;18.73;;
49241;SDS011;35079;52.704;13.814;2023-04-16T01:56:18;25.55;;;19.60;;
49241;SDS011;35079;52.704;13.814;2023-04-16T01:58:44;28.27;;;20.75;;
49241;SDS011;35079;52.704;13.814;2023-04-16T02:01:11;25.48;;;19.05;;
49241;SDS011;35079;52.704;13.814;2023-04-16T02:03:37;26.13;;;20.15;;
49241;SDS011;35079;52.704;13.814;2023-04-16T02:06:03;26.27;;;19.65;;
49241;SDS011;35079;52.704;13.814;2023-04-16T02:08:29;27.73;;;20.63;;
49241;SDS011;35079;52.704;13.814;2023-04-16T02:10:55;28.33;;;20.45;;
49241;SDS011;35079;52.704;13.814;2023-04-16T02:13:21;29.48;;;21.70;;
49241;SDS011;35079;52.704;13.814;2023-04-16T02:15:47;26.25;;;20.02;;
49241;SDS011;35079;52.704;13.814;2023-04-16T02:18:14;28.60;;;21.48;;
49241;SDS011;35079;52.704;13.814;2023-04-16T02:20:41;31.83;;;20.55;;
49241;SDS011;35079;52.704;13.814;2023-04-16T02:23:08;32.83;;;22.13;;
49241;SDS011;35079;52.704;13.814;2023-04-16T02:25:41;30.15;;;21.13;;
49241;SDS011;35079;52.704;13.814;2023-04-16T02:28:11;33.13;;;22.17;;
49241;SDS011;35079;52.704;13.814;2023-04-16T02:30:39;28.00;;;21.63;;
49241;SDS011;35079;52.704;13.814;2023-04-16T02:33:05;31.92;;;22.25;;
49241;SDS011;35079;52.704;13.814;2023-04-16T02:35:33;31.98;;;22.60;;
49241;SDS011;35079;52.704;13.814;2023-04-16T02:37:59;32.40;;;23.25;;
49241;SDS011;35079;52.704;13.814;2023-04-16T02:40:25;33.83;;;23.45;;
49241;SDS011;35079;52.704;13.814;2023-04-16T02:42:51;34.28;;;24.10;;
49241;SDS011;35079;52.704;13.814;2023-04-16T02:45:18;31.33;;;23.27;;
49241;SDS011;35079;52.704;13.814;2023-04-16T02:47:44;30.90;;;23.27;;
49241;SDS011;35079;52.704;13.814;2023-04-16T02:50:10;34.05;;;24.25;;
49241;SDS011;35079;52.704;13.814;2023-04-16T02:52:35;33.17;;;24.30;;
49241;SDS011;35079;52.704;13.814;2023-04-16T02:55:01;34.35;;;23.92;;
49241;SDS011;35079;52.704;13.814;2023-04-16T02:57:26;34.88;;;25.65;;
49241;SDS011;35079;52.704;13.814;2023-04-16T02:59:52;35.15;;;25.60;;
49241;SDS011;35079;52.704;13.814;2023-04-16T03:02:18;32.97;;;25.10;;
49241;SDS011;35079;52.704;13.814;2023-04-16T03:04:43;37.42;;;25.70;;
49241;SDS011;35079;52.704;13.814;2023-04-16T03:07:09;37.72;;;25.70;;
49241;SDS011;35079;52.704;13.814;2023-04-16T03:09:37;38.78;;;26.10;;
49241;SDS011;35079;52.704;13.814;2023-04-16T03:12:03;38.45;;;26.60;;
49241;SDS011;35079;52.704;13.814;2023-04-16T03:14:29;41.83;;;27.45;;
49241;SDS011;35079;52.704;13.814;2023-04-16T03:16:55;40.65;;;26.50;;
49241;SDS011;35079;52.704;13.814;2023-04-16T03:19:21;38.95;;;28.00;;
49241;SDS011;35079;52.704;13.814;2023-04-16T03:21:47;39.38;;;27.58;;
49241;SDS011;35079;52.704;13.814;2023-04-16T03:24:13;37.55;;;26.38;;
49241;SDS011;35079;52.704;13.814;2023-04-16T03:26:38;40.05;;;27.02;;
49241;SDS011;35079;52.704;13.814;2023-04-16T03:29:04;46.22;;;27.40;;
49241;SDS011;35079;52.704;13.814;2023-04-16T03:31:30;41.05;;;27.10;;
49241;SDS011;35079;52.704;13.814;2023-04-16T03:33:56;42.25;;;26.73;;
49241;SDS011;35079;52.704;13.814;2023-04-16T03:36:21;39.05;;;26.52;;
49241;SDS011;35079;52.704;13.814;2023-04-16T03:38:47;39.22;;;27.42;;
49241;SDS011;35079;52.704;13.814;2023-04-16T03:41:14;41.33;;;26.45;;
49241;SDS011;35079;52.704;13.814;2023-04-16T03:43:40;44.33;;;27.60;;
49241;SDS011;35079;52.704;13.814;2023-04-16T03:46:05;47.15;;;27.02;;
49241;SDS011;35079;52.704;13.814;2023-04-16T03:48:31;41.53;;;25.83;;
49241;SDS011;35079;52.704;13.814;2023-04-16T03:50:57;43.17;;;26.38;;
49241;SDS011;35079;52.704;13.814;2023-04-16T03:53:22;45.53;;;26.65;;
49241;SDS011;35079;52.704;13.814;2023-04-16T03:55:48;42.65;;;28.10;;
49241;SDS011;35079;52.704;13.814;2023-04-16T03:58:15;42.22;;;27.00;;
49241;SDS011;35079;52.704;13.814;2023-04-16T04:00:41;41.45;;;26.48;;
49241;SDS011;35079;52.704;13.814;2023-04-16T04:03:07;42.72;;;26.10;;
49241;SDS011;35079;52.704;13.814;2023-04-16T04:05:37;45.35;;;26.60;;
49241;SDS011;35079;52.704;13.814;2023-04-16T04:08:04;42.60;;;28.65;;
49241;SDS011;35079;52.704;13.814;2023-04-16T04:10:31;43.05;;;27.67;;
49241;SDS011;35079;52.704;13.814;2023-04-16T04:13:01;49.45;;;27.45;;
49241;SDS011;35079;52.704;13.814;2023-04-16T04:15:28;47.38;;;27.25;;
49241;SDS011;35079;52.704;13.814;2023-04-16T04:17:53;42.78;;;27.05;;
49241;SDS011;35079;52.704;13.814;2023-04-16T04:20:19;51.95;;;29.50;;
49241;SDS011;35079;52.704;13.814;2023-04-16T04:22:45;46.05;;;29.48;;
49241;SDS011;35079;52.704;13.814;2023-04-16T04:25:10;50.58;;;28.55;;
49241;SDS011;35079;52.704;13.814;2023-04-16T04:27:36;49.95;;;29.25;;
49241;SDS011;35079;52.704;13.814;2023-04-16T04:30:02;45.83;;;28.83;;
49241;SDS011;35079;52.704;13.814;2023-04-16T04:32:29;45.75;;;29.25;;
49241;SDS011;35079;52.704;13.814;2023-04-16T04:34:55;47.45;;;29.80;;
49241;SDS011;35079;52.704;13.814;2023-04-16T04:37:20;48.20;;;28.10;;
49241;SDS011;35079;52.704;13.814;2023-04-16T04:39:46;51.00;;;29.33;;
49241;SDS011;35079;52.704;13.814;2023-04-16T04:42:12;46.60;;;28.90;;
49241;SDS011;35079;52.704;13.814;2023-04-16T04:44:37;49.03;;;29.60;;
49241;SDS011;35079;52.704;13.814;2023-04-16T04:47:03;54.75;;;29.98;;
49241;SDS011;35079;52.704;13.814;2023-04-16T04:49:29;55.55;;;31.02;;
49241;SDS011;35079;52.704;13.814;2023-04-16T04:51:55;50.00;;;28.88;;
49241;SDS011;35079;52.704;13.814;2023-04-16T04:54:20;56.40;;;29.95;;
49241;SDS011;35079;52.704;13.814;2023-04-16T04:56:46;47.45;;;27.52;;
49241;SDS011;35079;52.704;13.814;2023-04-16T04:59:12;48.88;;;28.38;;
49241;SDS011;35079;52.704;13.814;2023-04-16T05:01:37;54.25;;;29.23;;
49241;SDS011;35079;52.704;13.814;2023-04-16T05:04:03;51.97;;;29.15;;
49241;SDS011;35079;52.704;13.814;2023-04-16T05:06:29;51.65;;;29.77;;
49241;SDS011;35079;52.704;13.814;2023-04-16T05:08:55;48.30;;;28.33;;
49241;SDS011;35079;52.704;13.814;2023-04-16T05:11:21;41.53;;;26.95;;
49241;SDS011;35079;52.704;13.814;2023-04-16T05:13:46;47.75;;;28.38;;
49241;SDS011;35079;52.704;13.814;2023-04-16T05:16:12;46.13;;;28.35;;
49241;SDS011;35079;52.704;13.814;2023-04-16T05:18:38;46.67;;;28.35;;
49241;SDS011;35079;52.704;13.814;2023-04-16T05:21:03;48.60;;;28.55;;
49241;SDS011;35079;52.704;13.814;2023-04-16T05:23:29;47.30;;;28.02;;
49241;SDS011;35079;52.704;13.814;2023-04-16T05:25:55;47.15;;;28.92;;
49241;SDS011;35079;52.704;13.814;2023-04-16T05:28:20;46.92;;;28.60;;
49241;SDS011;35079;52.704;13.814;2023-04-16T05:30:46;47.83;;;28.40;;
49241;SDS011;35079;52.704;13.814;2023-04-16T05:33:12;45.67;;;28.10;;
49241;SDS011;35079;52.704;13.814;2023-04-16T05:35:37;49.85;;;28.50;;
49241;SDS011;35079;52.704;13.814;2023-04-16T05:38:03;48.17;;;27.75;;
49241;SDS011;35079;52.704;13.814;2023-04-16T05:40:29;52.30;;;29.27;;
49241;SDS011;35079;52.704;13.814;2023-04-16T05:42:55;49.00;;;29.20;;
49241;SDS011;35079;52.704;13.814;2023-04-16T05:45:20;50.13;;;28.48;;
49241;SDS011;35079;52.704;13.814;2023-04-16T05:47:46;40.15;;;26.63;;
49241;SDS011;35079;52.704;13.814;2023-04-16T05:50:12;49.65;;;27.90;;
49241;SDS011;35079;52.704;13.814;2023-04-16T05:52:37;44.95;;;27.13;;
49241;SDS011;35079;52.704;13.814;2023-04-16T05:55:03;39.45;;;26.33;;
49241;SDS011;35079;52.704;13.814;2023-04-16T05:57:29;46.30;;;26.80;;
49241;SDS011;35079;52.704;13.814;2023-04-16T05:59:55;44.28;;;27.58;;
49241;SDS011;35079;52.704;13.814;2023-04-16T06:02:20;44.17;;;26.17;;
49241;SDS011;35079;52.704;13.814;2023-04-16T06:04:46;39.30;;;24.58;;
49241;SDS011;35079;52.704;13.814;2023-04-16T06:07:12;38.15;;;24.15;;
49241;SDS011;35079;52.704;13.814;2023-04-16T06:09:37;43.05;;;25.00;;
49241;SDS011;35079;52.704;13.814;2023-04-16T06:12:03;39.83;;;25.92;;
49241;SDS011;35079;52.704;13.814;2023-04-16T06:14:29;41.78;;;26.17;;
49241;SDS011;35079;52.704;13.814;2023-04-16T06:16:54;35.08;;;23.35;;
49241;SDS011;35079;52.704;13.814;2023-04-16T06:19:20;36.58;;;23.23;;
49241;SDS011;35079;52.704;13.814;2023-04-16T06:21:46;36.70;;;22.70;;
49241;SDS011;35079;52.704;13.814;2023-04-16T06:24:11;37.15;;;23.50;;
49241;SDS011;35079;52.704;13.814;2023-04-16T06:26:37;33.00;;;21.85;;
49241;SDS011;35079;52.704;13.814;2023-04-16T06:29:03;31.65;;;22.02;;
49241;SDS011;35079;52.704;13.814;2023-04-16T06:31:29;34.13;;;22.13;;
49241;SDS011;35079;52.704;13.814;2023-04-16T06:33:54;32.88;;;21.58;;
49241;SDS011;35079;52.704;13.814;2023-04-16T06:36:20;35.10;;;21.70;;
49241;SDS011;35079;52.704;13.814;2023-04-16T06:38:46;31.20;;;21.52;;
49241;SDS011;35079;52.704;13.814;2023-04-16T06:41:12;33.95;;;21.02;;
49241;SDS011;35079;52.704;13.814;2023-04-16T06:43:38;34.75;;;21.23;;
49241;SDS011;35079;52.704;13.814;2023-04-16T06:46:04;29.13;;;20.30;;
49241;SDS011;35079;52.704;13.814;2023-04-16T06:48:30;29.88;;;20.58;;
49241;SDS011;35079;52.704;13.814;2023-04-16T06:50:56;26.73;;;19.23;;
49241;SDS011;35079;52.704;13.814;2023-04-16T06:53:22;30.23;;;20.55;;
49241;SDS011;35079;52.704;13.814;2023-04-16T06:55:47;28.10;;;20.60;;
49241;SDS011;35079;52.704;13.814;2023-04-16T06:58:13;32.03;;;21.65;;
49241;SDS011;35079;52.704;13.814;2023-04-16T07:00:39;32.03;;;22.23;;
49241;SDS011;35079;52.704;13.814;2023-04-16T07:03:04;34.17;;;21.92;;
49241;SDS011;35079;52.704;13.814;2023-04-16T07:05:30;29.88;;;21.35;;
49241;SDS011;35079;52.704;13.814;2023-04-16T07:07:56;34.13;;;22.42;;
49241;SDS011;35079;52.704;13.814;2023-04-16T07:10:22;35.63;;;23.15;;
49241;SDS011;35079;52.704;13.814;2023-04-16T07:12:48;32.92;;;22.60;;
49241;SDS011;35079;52.704;13.814;2023-04-16T07:15:14;38.35;;;23.77;;
49241;SDS011;35079;52.704;13.814;2023-04-16T07:17:40;35.13;;;23.17;;
49241;SDS011;35079;52.704;13.814;2023-04-16T07:20:05;31.65;;;21.38;;
49241;SDS011;35079;52.704;13.814;2023-04-16T07:22:32;33.13;;;22.67;;
49241;SDS011;35079;52.704;13.814;2023-04-16T07:24:57;32.92;;;23.42;;
49241;SDS011;35079;52.704;13.814;2023-04-16T07:27:23;34.15;;;23.08;;
49241;SDS011;35079;52.704;13.814;2023-04-16T07:29:48;36.17;;;23.85;;
49241;SDS011;35079;52.704;13.814;2023-04-16T07:32:14;35.33;;;23.27;;
49241;SDS011;35079;52.704;13.814;2023-04-16T07:34:40;35.42;;;23.77;;
49241;SDS011;35079;52.704;13.814;2023-04-16T07:37:06;33.95;;;23.40;;
49241;SDS011;35079;52.704;13.814;2023-04-16T07:39:32;40.45;;;24.80;;
49241;SDS011;35079;52.704;13.814;2023-04-16T07:41:58;36.42;;;23.75;;
49241;SDS011;35079;52.704;13.814;2023-04-16T07:44:23;32.78;;;24.00;;
49241;SDS011;35079;52.704;13.814;2023-04-16T07:46:49;34.55;;;23.65;;
49241;SDS011;35079;52.704;13.814;2023-04-16T07:49:15;35.50;;;24.50;;
49241;SDS011;35079;52.704;13.814;2023-04-16T07:51:40;38.55;;;25.60;;
49241;SDS011;35079;52.704;13.814;2023-04-16T07:54:06;34.20;;;23.77;;
49241;SDS011;35079;52.704;13.814;2023-04-16T07:56:32;33.72;;;24.23;;
49241;SDS011;35079;52.704;13.814;2023-04-16T07:58:57;35.03;;;24.35;;
49241;SDS011;35079;52.704;13.814;2023-04-16T08:01:23;32.72;;;24.15;;
49241;SDS011;35079;52.704;13.814;2023-04-16T08:03:49;34.88;;;25.10;;
49241;SDS011;35079;52.704;13.814;2023-04-16T08:06:15;36.13;;;25.45;;
49241;SDS011;35079;52.704;13.814;2023-04-16T08:08:41;36.83;;;24.42;;
49241;SDS011;35079;52.704;13.814;2023-04-16T08:11:07;33.72;;;24.42;;
49241;SDS011;35079;52.704;13.814;2023-04-16T08:13:32;36.88;;;24.20;;
49241;SDS011;35079;52.704;13.814;2023-04-16T08:15:58;35.90;;;24.25;;
49241;SDS011;35079;52.704;13.814;2023-04-16T08:18:24;34.28;;;24.30;;
49241;SDS011;35079;52.704;13.814;2023-04-16T08:20:49;33.55;;;24.08;;
49241;SDS011;35079;52.704;13.814;2023-04-16T08:23:15;29.88;;;23.17;;
49241;SDS011;35079;52.704;13.814;2023-04-16T08:25:41;30.25;;;21.80;;
49241;SDS011;35079;52.704;13.814;2023-04-16T08:28:06;30.10;;;21.58;;
49241;SDS011;35079;52.704;13.814;2023-04-16T08:30:32;29.48;;;21.23;;
49241;SDS011;35079;52.704;13.814;2023-04-16T08:32:58;33.83;;;21.85;;
49241;SDS011;35079;52.704;13.814;2023-04-16T08:35:23;28.67;;;21.30;;
49241;SDS011;35079;52.704;13.814;2023-04-16T08:37:49;29.25;;;21.52;;
49241;SDS011;35079;52.704;13.814;2023-04-16T08:40:15;28.33;;;21.70;;
49241;SDS011;35079;52.704;13.814;2023-04-16T08:42:45;27.00;;;20.80;;
49241;SDS011;35079;52.704;13.814;2023-04-16T08:45:16;27.20;;;21.08;;
49241;SDS011;35079;52.704;13.814;2023-04-16T08:47:46;24.85;;;19.92;;
49241;SDS011;35079;52.704;13.814;2023-04-16T08:50:16;24.30;;;19.45;;
49241;SDS011;35079;52.704;13.814;2023-04-16T08:53:14;26.35;;;20.30;;
49241;SDS011;35079;52.704;13.814;2023-04-16T08:55:46;24.33;;;19.30;;
49241;SDS011;35079;52.704;13.814;2023-04-16T08:58:13;25.77;;;19.63;;
49241;SDS011;35079;52.704;13.814;2023-04-16T09:00:41;27.02;;;20.27;;
49241;SDS011;35079;52.704;13.814;2023-04-16T09:03:08;28.70;;;21.00;;
49241;SDS011;35079;52.704;13.814;2023-04-16T09:05:34;25.80;;;19.40;;
49241;SDS011;35079;52.704;13.814;2023-04-16T09:08:01;21.65;;;18.13;;
49241;SDS011;35079;52.704;13.814;2023-04-16T09:10:27;23.50;;;17.55;;
49241;SDS011;35079;52.704;13.814;2023-04-16T09:12:55;24.95;;;18.45;;
49241;SDS011;35079;52.704;13.814;2023-04-16T09:15:21;22.13;;;17.30;;
49241;SDS011;35079;52.704;13.814;2023-04-16T09:17:47;18.10;;;15.32;;
49241;SDS011;35079;52.704;13.814;2023-04-16T09:20:13;18.42;;;15.60;;
49241;SDS011;35079;52.704;13.814;2023-04-16T09:22:40;16.75;;;14.32;;
49241;SDS011;35079;52.704;13.814;2023-04-16T09:25:06;17.73;;;14.73;;
49241;SDS011;35079;52.704;13.814;2023-04-16T09:27:32;17.92;;;13.95;;
49241;SDS011;35079;52.704;13.814;2023-04-16T09:29:58;16.30;;;14.32;;
49241;SDS011;35079;52.704;13.814;2023-04-16T09:32:24;18.52;;;15.30;;
49241;SDS011;35079;52.704;13.814;2023-04-16T09:35:01;19.00;;;14.60;;
49241;SDS011;35079;52.704;13.814;2023-04-16T09:37:28;16.45;;;14.30;;
49241;SDS011;35079;52.704;13.814;2023-04-16T09:39:58;15.25;;;13.38;;
49241;SDS011;35079;52.704;13.814;2023-04-16T09:42:26;16.05;;;13.43;;
49241;SDS011;35079;52.704;13.814;2023-04-16T09:44:54;15.77;;;13.18;;
49241;SDS011;35079;52.704;13.814;2023-04-16T09:47:20;15.10;;;11.95;;
49241;SDS011;35079;52.704;13.814;2023-04-16T09:49:47;15.40;;;12.35;;
49241;SDS011;35079;52.704;13.814;2023-04-16T09:52:13;13.35;;;11.38;;
49241;SDS011;35079;52.704;13.814;2023-04-16T09:54:49;12.25;;;10.95;;
49241;SDS011;35079;52.704;13.814;2023-04-16T09:57:20;11.18;;;9.73;;
49241;SDS011;35079;52.704;13.814;2023-04-16T09:59:49;16.00;;;9.73;;
49241;SDS011;35079;52.704;13.814;2023-04-16T10:02:28;12.73;;;9.45;;
49241;SDS011;35079;52.704;13.814;2023-04-16T10:04:54;12.10;;;10.32;;
49241;SDS011;35079;52.704;13.814;2023-04-16T10:07:21;11.05;;;9.85;;
49241;SDS011;35079;52.704;13.814;2023-04-16T10:09:47;11.32;;;8.63;;
49241;SDS011;35079;52.704;13.814;2023-04-16T10:12:13;10.60;;;9.20;;
49241;SDS011;35079;52.704;13.814;2023-04-16T10:14:40;10.75;;;8.50;;
49241;SDS011;35079;52.704;13.814;2023-04-16T10:17:07;9.38;;;7.72;;
49241;SDS011;35079;52.704;13.814;2023-04-16T10:19:33;11.35;;;8.45;;
49241;SDS011;35079;52.704;13.814;2023-04-16T10:21:59;10.98;;;7.95;;
49241;SDS011;35079;52.704;13.814;2023-04-16T10:24:31;8.63;;;7.65;;
49241;SDS011;35079;52.704;13.814;2023-04-16T10:26:57;9.40;;;8.50;;
49241;SDS011;35079;52.704;13.814;2023-04-16T10:29:27;9.23;;;8.05;;
49241;SDS011;35079;52.704;13.814;2023-04-16T10:31:55;11.20;;;8.07;;
49241;SDS011;35079;52.704;13.814;2023-04-16T10:34:21;9.02;;;8.07;;
49241;SDS011;35079;52.704;13.814;2023-04-16T10:36:52;10.30;;;9.02;;
49241;SDS011;35079;52.704;13.814;2023-04-16T10:39:19;10.18;;;9.02;;
49241;SDS011;35079;52.704;13.814;2023-04-16T10:41:46;11.85;;;9.52;;
49241;SDS011;35079;52.704;13.814;2023-04-16T10:44:14;11.82;;;10.63;;
49241;SDS011;35079;52.704;13.814;2023-04-16T10:46:42;12.55;;;10.15;;
49241;SDS011;35079;52.704;13.814;2023-04-16T10:49:14;12.48;;;10.15;;
49241;SDS011;35079;52.704;13.814;2023-04-16T10:54:24;11.55;;;10.35;;
49241;SDS011;35079;52.704;13.814;2023-04-16T10:56:57;13.52;;;11.05;;
49241;SDS011;35079;52.704;13.814;2023-04-16T10:59:24;14.68;;;11.75;;
49241;SDS011;35079;52.704;13.814;2023-04-16T11:01:54;13.10;;;11.73;;
49241;SDS011;35079;52.704;13.814;2023-04-16T11:09:57;13.80;;;11.93;;
49241;SDS011;35079;52.704;13.814;2023-04-16T11:12:40;13.75;;;11.43;;
49241;SDS011;35079;52.704;13.814;2023-04-16T11:15:12;12.25;;;10.98;;
49241;SDS011;35079;52.704;13.814;2023-04-16T11:17:47;11.68;;;10.50;;
49241;SDS011;35079;52.704;13.814;2023-04-16T11:20:16;13.43;;;10.55;;
49241;SDS011;35079;52.704;13.814;2023-04-16T11:22:43;11.98;;;10.70;;
49241;SDS011;35079;52.704;13.814;2023-04-16T11:25:09;11.63;;;9.75;;
49241;SDS011;35079;52.704;13.814;2023-04-16T11:27:35;13.00;;;11.05;;
49241;SDS011;35079;52.704;13.814;2023-04-16T11:30:02;12.88;;;11.48;;
49241;SDS011;35079;52.704;13.814;2023-04-16T11:32:30;13.70;;;11.65;;
49241;SDS011;35079;52.704;13.814;2023-04-16T11:34:57;14.70;;;12.18;;
49241;SDS011;35079;52.704;13.814;2023-04-16T11:37:31;14.70;;;12.70;;
49241;SDS011;35079;52.704;13.814;2023-04-16T11:40:01;18.30;;;14.05;;
49241;SDS011;35079;52.704;13.814;2023-04-16T11:42:30;15.38;;;13.38;;
49241;SDS011;35079;52.704;13.814;2023-04-16T11:44:56;17.23;;;14.35;;
49241;SDS011;35079;52.704;13.814;2023-04-16T11:47:24;16.05;;;14.35;;
49241;SDS011;35079;52.704;13.814;2023-04-16T11:49:51;15.82;;;14.07;;
49241;SDS011;35079;52.704;13.814;2023-04-16T11:52:30;16.20;;;14.23;;
49241;SDS011;35079;52.704;13.814;2023-04-16T11:54:57;16.67;;;14.65;;
49241;SDS011;35079;52.704;13.814;2023-04-16T11:57:27;16.45;;;14.63;;
49241;SDS011;35079;52.704;13.814;2023-04-16T11:59:53;15.88;;;13.48;;
49241;SDS011;35079;52.704;13.814;2023-04-16T12:02:36;14.23;;;12.05;;
49241;SDS011;35079;52.704;13.814;2023-04-16T12:05:04;14.27;;;12.25;;
49241;SDS011;35079;52.704;13.814;2023-04-16T12:07:31;13.27;;;11.20;;
49241;SDS011;35079;52.704;13.814;2023-04-16T12:10:08;12.20;;;10.25;;
49241;SDS011;35079;52.704;13.814;2023-04-16T12:12:34;13.60;;;10.48;;
49241;SDS011;35079;52.704;13.814;2023-04-16T12:15:00;13.07;;;11.25;;
49241;SDS011;35079;52.704;13.814;2023-04-16T12:17:30;11.63;;;10.35;;
49241;SDS011;35079;52.704;13.814;2023-04-16T12:20:01;11.65;;;9.68;;
49241;SDS011;35079;52.704;13.814;2023-04-16T12:22:38;11.38;;;10.25;;
49241;SDS011;35079;52.704;13.814;2023-04-16T12:25:05;11.40;;;9.63;;
49241;SDS011;35079;52.704;13.814;2023-04-16T12:27:51;10.75;;;9.63;;
49241;SDS011;35079;52.704;13.814;2023-04-16T12:30:23;11.63;;;10.43;;
49241;SDS011;35079;52.704;13.814;2023-04-16T12:33:12;11.88;;;10.57;;
49241;SDS011;35079;52.704;13.814;2023-04-16T12:35:42;12.95;;;10.70;;
49241;SDS011;35079;52.704;13.814;2023-04-16T12:38:08;13.98;;;11.35;;
49241;SDS011;35079;52.704;13.814;2023-04-16T12:40:35;13.68;;;12.13;;
49241;SDS011;35079;52.704;13.814;2023-04-16T12:43:01;14.35;;;11.73;;
49241;SDS011;35079;52.704;13.814;2023-04-16T12:45:26;14.90;;;12.80;;
49241;SDS011;35079;52.704;13.814;2023-04-16T12:47:52;14.82;;;13.23;;
49241;SDS011;35079;52.704;13.814;2023-04-16T12:50:18;16.73;;;13.50;;
49241;SDS011;35079;52.704;13.814;2023-04-16T12:52:44;16.55;;;13.63;;
49241;SDS011;35079;52.704;13.814;2023-04-16T12:55:09;17.92;;;13.85;;
49241;SDS011;35079;52.704;13.814;2023-04-16T12:57:36;16.52;;;13.52;;
49241;SDS011;35079;52.704;13.814;2023-04-16T13:00:05;15.38;;;13.10;;
49241;SDS011;35079;52.704;13.814;2023-04-16T13:02:32;15.98;;;13.60;;
49241;SDS011;35079;52.704;13.814;2023-04-16T13:04:58;16.60;;;13.50;;
49241;SDS011;35079;52.704;13.814;2023-04-16T13:07:23;15.88;;;13.20;;
49241;SDS011;35079;52.704;13.814;2023-04-16T13:09:50;16.35;;;13.35;;
49241;SDS011;35079;52.704;13.814;2023-04-16T13:12:16;19.38;;;14.18;;
49241;SDS011;35079;52.704;13.814;2023-04-16T13:14:42;15.32;;;13.18;;
49241;SDS011;35079;52.704;13.814;2023-04-16T13:17:08;14.30;;;12.27;;
49241;SDS011;35079;52.704;13.814;2023-04-16T13:19:34;14.60;;;11.98;;
49241;SDS011;35079;52.704;13.814;2023-04-16T13:21:59;12.95;;;11.52;;
49241;SDS011;35079;52.704;13.814;2023-04-16T13:24:25;14.25;;;11.55;;
49241;SDS011;35079;52.704;13.814;2023-04-16T13:26:51;14.88;;;11.77;;
49241;SDS011;35079;52.704;13.814;2023-04-16T13:29:20;13.63;;;11.82;;
49241;SDS011;35079;52.704;13.814;2023-04-16T13:31:46;13.63;;;11.82;;
49241;SDS011;35079;52.704;13.814;2023-04-16T13:34:12;19.75;;;11.55;;
49241;SDS011;35079;52.704;13.814;2023-04-16T13:36:38;14.15;;;11.50;;
49241;SDS011;35079;52.704;13.814;2023-04-16T13:39:04;12.65;;;11.32;;
49241;SDS011;35079;52.704;13.814;2023-04-16T13:41:34;11.77;;;10.57;;
49241;SDS011;35079;52.704;13.814;2023-04-16T13:44:00;15.15;;;10.98;;
49241;SDS011;35079;52.704;13.814;2023-04-16T13:46:26;12.65;;;10.75;;
49241;SDS011;35079;52.704;13.814;2023-04-16T13:48:52;13.70;;;11.10;;
49241;SDS011;35079;52.704;13.814;2023-04-16T13:51:18;12.85;;;11.43;;
49241;SDS011;35079;52.704;13.814;2023-04-16T13:53:44;12.63;;;10.73;;
49241;SDS011;35079;52.704;13.814;2023-04-16T13:56:10;13.15;;;11.15;;
49241;SDS011;35079;52.704;13.814;2023-04-16T13:58:36;13.07;;;11.40;;
49241;SDS011;35079;52.704;13.814;2023-04-16T14:01:02;12.00;;;10.50;;
49241;SDS011;35079;52.704;13.814;2023-04-16T14:03:27;11.20;;;10.00;;
49241;SDS011;35079;52.704;13.814;2023-04-16T14:05:53;12.65;;;10.15;;
49241;SDS011;35079;52.704;13.814;2023-04-16T14:08:19;9.85;;;8.85;;
49241;SDS011;35079;52.704;13.814;2023-04-16T14:10:48;12.52;;;9.70;;
49241;SDS011;35079;52.704;13.814;2023-04-16T14:13:16;12.93;;;10.30;;
49241;SDS011;35079;52.704;13.814;2023-04-16T14:15:42;10.30;;;9.20;;
49241;SDS011;35079;52.704;13.814;2023-04-16T14:18:08;9.80;;;8.60;;